Terminal Aerodrome Forecast
Issued by NWS Jackson, MS

Current Version | Previous Version | Text Only | Print | Product List | Glossary On
Versions: 1 2 3 4 5 6 7 8 9 10 11 12 13 14 15
000
FTUS44 KJAN 262340
TAFMEI
TAF
KMEI 262340Z 2700/2724 18004KT P6SM SCT040
     FM270100 20004KT P6SM SCT250
     FM271000 18003KT 3SM BR BKN010
     FM271500 20006KT P6SM SCT035
     FM272000 17006KT P6SM VCTS BKN050CB=

USA.gov is the U.S. government's official web portal to all federal, state and local government web resources and services.